This demonstration page uses our WeatherBlox Daily Observations layout. Learn more.

39.92423, -83.80882

Hourly Observations for September 1, 2017

Temp ( °F °C ) Dew Point ( °F °C ) Humidity (%) Winds ( mph kmh ) Pressure ( in mb ) Visibility ( mi km ) Precip ( " mm )
12:56 am 00:56 Clear 59 15 52 11.1 78 78 ENE 13 20 30.09 1019 10 16.09344 0 0
1:56 am 01:56 Clear 58 14.4 52 11.1 81 81 NE 15 24 30.09 1019 10 16.09344 0 0
2:56 am 02:56 Clear 58 14.4 52 11.1 81 81 NE 13 20 30.09 1019 10 16.09344 0 0
3:56 am 03:56 Clear 57 13.9 53 11.7 87 87 ENE 14 22 30.06 1018 10 16.09344 0 0
4:56 am 04:56 Clear 57 13.9 53 11.7 87 87 ENE 15 24 30.03 1017 10 16.09344 0 0
5:56 am 05:56 Clear 56 13.3 52 11.1 87 87 ENE 13 20 30.06 1018 10 16.09344 0 0
6:56 am 06:56 Clear 56 13.3 52 11.1 87 87 ENE 16 26 30.06 1018 10 16.09344 0 0
7:56 am 07:56 Sunny 56 13.3 50 10 81 81 ENE 16 26 30.06 1018 10 16.09344 0 0
8:56 am 08:56 Sunny 56 13.3 49 9.4 77 77 ENE 16 26 30.06 1018 10 16.09344 0 0
9:56 am 09:56 Sunny 56 13.3 48 8.9 75 75 ENE 17 28 30.06 1018 10 16.09344 0 0
10:56 am 10:56 Sunny 56 13.3 48 8.9 75 75 ENE 24 39 30.06 1018 10 16.09344 0 0
11:56 am 11:56 Mostly Sunny 57 13.9 47 8.3 69 69 ENE 24 39 30.06 1018 10 16.09344 0 0
12:56 pm 12:56 Cloudy 57 13.9 46 7.8 67 67 ENE 17 28 30.06 1018 10 16.09344 0 0
1:56 pm 13:56 Cloudy with Light Rain 56 13.3 46 7.8 70 70 NE 22 35 30.03 1017 10 16.09344 0.001 0.001
2:56 pm 14:56 Cloudy 57 13.9 47 8.3 69 69 ENE 21 33 30.03 1017 10 16.09344 0.001 0.001
3:56 pm 15:56 Cloudy with Light Rain 55 12.8 49 9.4 80 80 ENE 14 22 30.03 1017 10 16.09344 0.01 0.254
4:32 pm 16:32 Cloudy with Light Rain 54 12 50 10 88 88 NE 12 19 30.03 1017 10 16.09344 0.04 1.016
4:56 pm 16:56 Cloudy 55 12.8 50 10 83 83 NE 13 20 30 1016 10 16.09344 0.04 1.016
5:56 pm 17:56 Cloudy 56 13.3 49 9.4 77 77 NE 13 20 30 1016 10 16.09344 0.001 0.001
6:56 pm 18:56 Cloudy with Light Rain 55 12.8 49 9.4 80 80 NE 12 19 30 1016 10 16.09344 0.01 0.254
7:56 pm 19:56 Sunny 67 19.4 59 15 76 76 NE 14 22 30.06 1018 10 16.09344 0 0
8:56 pm 20:56 Mostly Cloudy with Light Rain 55 12.8 48 8.9 77 77 ENE 12 19 30 1016 10 16.09344 0.001 0.001
9:56 pm 21:56 Mostly Cloudy 56 13.3 48 8.9 75 75 ENE 10 17 30 1016 10 16.09344 0.001 0.001
10:56 pm 22:56 Cloudy 57 13.9 47 8.3 69 69 NE 16 26 30 1016 10 16.09344 0 0
11:56 pm 23:56 Cloudy with Light Rain 54 12.2 49 9.4 83 83 NE 14 22 30 1016 10 16.09344 0.01 0.254

Powered by AerisWeather